KDXR/DXR METAR and TAF weather

Enter ICAO airport designator
Station Type Date Time Source
KDXR METAR 2018/12/12 22:53 UTC NOAA

KDXR 122253Z 00000KT 10SM CLR M01/M07 A3018 RMK AO2 SLP226 T10111067


Station Type Date Time Source
KDXR Decoded METAR 2018/12/12 22:53 UTC NOAA

DANBURY MUNICIPAL AIRPORT, CT, United States (KDXR) 41-22N 073-29W 139M
Dec 12, 2018 - 05:53 PM EST / 2018.12.12 2253 UTC
Wind: Calm:0
Visibility: 10 mile(s):0
Sky conditions: clear
Temperature: 30.0 F (-1.1 C)
Dew Point: 19.9 F (-6.7 C)
Relative Humidity: 65%
Pressure (altimeter): 30.18 in. Hg (1022 hPa)
ob: KDXR 122253Z 00000KT 10SM CLR M01/M07 A3018 RMK AO2 SLP226 T10111067
cycle: 23

Station Type Date Time Source
KDXR TAF UTC NOAA

Error!


Example: see airport list